Time;durP1;ratioP1;P1;durP2;ratioP2;P2;SDS_P1;SDS_P2;PMS_P1;PMS_P2;Temp;Humidity;BMP_temperature;BMP_pressure;BME280_temperature;BME280_humidity;BME280_pressure;Samples;Min_cycle;Max_cycle;Signal;HPM_P1;HPM_P2
2023/04/22 00:01:27;;;;;;;10.98;7.82;;;15.10;99.90;;;;;;5097793;28;20079;-73
2023/04/22 00:03:53;;;;;;;11.07;7.53;;;15.10;99.90;;;;;;5097795;28;20486;-73
2023/04/22 00:06:19;;;;;;;9.30;7.00;;;15.10;99.90;;;;;;5097752;28;20174;-73
2023/04/22 00:08:45;;;;;;;10.07;7.18;;;15.20;99.90;;;;;;5096022;28;20032;-73
2023/04/22 00:11:10;;;;;;;10.55;6.65;;;15.10;99.90;;;;;;5097500;28;20048;-73
2023/04/22 00:13:36;;;;;;;9.23;6.78;;;15.00;99.90;;;;;;5097253;28;20048;-73
2023/04/22 00:16:03;;;;;;;9.25;7.43;;;15.00;99.90;;;;;;5096993;28;20113;-73
2023/04/22 00:18:28;;;;;;;10.38;7.45;;;14.90;99.90;;;;;;5097529;28;20065;-73
2023/04/22 00:20:54;;;;;;;8.65;6.88;;;15.00;99.90;;;;;;5097020;28;20070;-73
2023/04/22 00:23:20;;;;;;;13.15;8.02;;;14.90;99.90;;;;;;5097152;28;20044;-73
2023/04/22 00:25:45;;;;;;;11.18;7.35;;;14.80;99.90;;;;;;5097470;28;20111;-73
2023/04/22 00:28:11;;;;;;;9.60;7.60;;;14.70;99.90;;;;;;5097304;28;20429;-73
2023/04/22 00:30:37;;;;;;;10.30;7.45;;;14.70;99.90;;;;;;5097382;28;20044;-73
2023/04/22 00:33:03;;;;;;;10.52;8.30;;;14.60;99.90;;;;;;5097283;28;20068;-73
2023/04/22 00:35:29;;;;;;;11.63;7.72;;;14.60;99.90;;;;;;5097263;28;20040;-73
2023/04/22 00:37:55;;;;;;;11.48;7.88;;;14.50;99.90;;;;;;5096502;28;20092;-73
2023/04/22 00:40:21;;;;;;;11.15;7.57;;;14.50;99.90;;;;;;5096818;28;20047;-73
2023/04/22 00:42:49;;;;;;;10.15;7.43;;;14.40;99.90;;;;;;5096858;28;20036;-73
2023/04/22 00:45:17;;;;;;;8.68;7.13;;;14.30;99.90;;;;;;5097195;28;20177;-73
2023/04/22 00:47:47;;;;;;;10.35;7.88;;;14.20;99.90;;;;;;5097126;28;20032;-73
2023/04/22 00:50:13;;;;;;;10.25;7.65;;;14.20;99.90;;;;;;5097090;28;20104;-73
2023/04/22 00:52:39;;;;;;;13.48;7.75;;;14.20;99.90;;;;;;5096471;28;20452;-73
2023/04/22 00:55:05;;;;;;;9.60;7.43;;;14.20;99.90;;;;;;5096936;28;20040;-73
2023/04/22 00:57:32;;;;;;;9.52;6.93;;;14.10;99.90;;;;;;5096989;28;20089;-73
2023/04/22 00:59:58;;;;;;;9.65;7.85;;;14.00;99.90;;;;;;5096601;28;20447;-73
2023/04/22 01:02:24;;;;;;;8.30;6.85;;;13.90;99.90;;;;;;5095625;28;20039;-73
2023/04/22 01:04:52;;;;;;;11.43;7.60;;;13.80;99.90;;;;;;5096889;28;20302;-73
2023/04/22 01:07:18;;;;;;;10.18;7.47;;;13.80;99.90;;;;;;5096762;28;20046;-73
2023/04/22 01:09:45;;;;;;;9.57;6.75;;;13.80;99.90;;;;;;5096952;28;20329;-73
2023/04/22 01:12:10;;;;;;;11.20;7.93;;;13.80;99.90;;;;;;5096595;28;20425;-73
2023/04/22 01:14:36;;;;;;;10.15;7.28;;;13.70;99.90;;;;;;5096857;28;20040;-73
2023/04/22 01:17:02;;;;;;;10.30;7.72;;;13.70;99.90;;;;;;5096446;28;20032;-73
2023/04/22 01:19:28;;;;;;;13.02;8.23;;;13.70;99.90;;;;;;5096283;28;20036;-73
2023/04/22 01:21:55;;;;;;;10.57;7.93;;;13.60;99.90;;;;;;5096709;28;20055;-73
2023/04/22 01:24:21;;;;;;;11.75;9.10;;;13.60;99.90;;;;;;5096427;28;20051;-74
2023/04/22 01:26:47;;;;;;;13.07;7.63;;;13.60;99.90;;;;;;5099841;28;20169;-73
2023/04/22 01:29:14;;;;;;;11.50;8.38;;;13.50;99.90;;;;;;5100467;28;20433;-73
2023/04/22 01:31:40;;;;;;;15.57;10.20;;;13.60;99.90;;;;;;5100419;28;20043;-73
2023/04/22 01:34:06;;;;;;;14.35;10.60;;;13.60;99.90;;;;;;5100459;28;20123;-74
2023/04/22 01:36:32;;;;;;;12.80;10.10;;;13.80;99.90;;;;;;5100659;28;20032;-73
2023/04/22 01:38:59;;;;;;;14.65;10.73;;;14.00;99.90;;;;;;5099896;28;20488;-73
2023/04/22 01:41:25;;;;;;;14.23;10.38;;;14.00;99.90;;;;;;5100197;28;20098;-73
2023/04/22 01:43:52;;;;;;;13.88;9.30;;;13.90;99.90;;;;;;5099516;28;20039;-73
2023/04/22 01:46:18;;;;;;;14.18;9.00;;;13.90;99.90;;;;;;5100455;28;20036;-73
2023/04/22 01:48:50;;;;;;;10.02;8.20;;;13.80;99.90;;;;;;5100032;28;20303;-73
2023/04/22 01:51:19;;;;;;;10.63;8.98;;;13.70;99.90;;;;;;5100126;28;20058;-73
2023/04/22 01:53:49;;;;;;;13.45;9.32;;;13.60;99.90;;;;;;5100078;28;20116;-74
2023/04/22 01:56:15;;;;;;;14.00;9.63;;;13.60;99.90;;;;;;5100264;28;20036;-73
2023/04/22 01:58:41;;;;;;;10.20;8.20;;;13.50;99.90;;;;;;5100230;28;20032;-73
2023/04/22 02:01:09;;;;;;;10.40;7.82;;;13.50;99.90;;;;;;5099030;28;20055;-73
2023/04/22 02:03:35;;;;;;;12.80;8.27;;;13.40;99.90;;;;;;5099821;28;20494;-74
2023/04/22 02:06:01;;;;;;;10.75;8.25;;;13.30;99.90;;;;;;5099724;28;20082;-73
2023/04/22 02:08:27;;;;;;;11.35;8.50;;;13.30;99.90;;;;;;5099598;28;20036;-73
2023/04/22 02:10:53;;;;;;;11.43;8.82;;;13.20;99.90;;;;;;5099944;28;20452;-73
2023/04/22 02:13:18;;;;;;;10.73;8.07;;;13.10;99.90;;;;;;5098925;28;20066;-73
2023/04/22 02:15:45;;;;;;;11.05;8.65;;;13.10;99.90;;;;;;5099913;28;20121;-73
2023/04/22 02:18:11;;;;;;;13.45;8.70;;;13.00;99.90;;;;;;5098929;28;20428;-73
2023/04/22 02:20:37;;;;;;;11.93;9.15;;;13.00;99.90;;;;;;5098291;28;20101;-73
2023/04/22 02:23:03;;;;;;;9.95;7.70;;;13.00;99.90;;;;;;5099457;28;20043;-74
2023/04/22 02:25:29;;;;;;;10.95;8.63;;;13.10;99.90;;;;;;5099734;28;20044;-73
2023/04/22 02:27:55;;;;;;;9.85;8.32;;;13.00;99.90;;;;;;5099656;28;20043;-73
2023/04/22 02:30:21;;;;;;;12.93;8.25;;;13.00;99.90;;;;;;5099634;28;20035;-74
2023/04/22 02:32:46;;;;;;;10.25;8.00;;;12.90;99.90;;;;;;5099511;28;20036;-74
2023/04/22 02:35:12;;;;;;;11.65;8.70;;;12.90;99.90;;;;;;5099467;28;20076;-74
2023/04/22 02:37:38;;;;;;;10.93;8.18;;;12.90;99.90;;;;;;5098017;28;20088;-73
2023/04/22 02:40:06;;;;;;;11.30;8.45;;;12.90;99.90;;;;;;5099050;28;20036;-73
2023/04/22 02:42:32;;;;;;;11.18;8.38;;;12.90;99.90;;;;;;5099397;28;20145;-74
2023/04/22 02:44:57;;;;;;;11.55;8.20;;;12.90;99.90;;;;;;5098980;28;20173;-73
2023/04/22 02:47:23;;;;;;;12.48;9.45;;;12.80;99.90;;;;;;5099547;28;20043;-73
2023/04/22 02:49:49;;;;;;;12.93;8.85;;;12.90;99.90;;;;;;5098900;28;20465;-73
2023/04/22 02:52:15;;;;;;;11.68;8.35;;;12.90;99.90;;;;;;5099214;28;20107;-73
2023/04/22 02:54:40;;;;;;;13.32;9.43;;;12.80;99.90;;;;;;5099094;28;20036;-74
2023/04/22 02:57:06;;;;;;;11.32;8.68;;;12.80;99.90;;;;;;5099095;28;20036;-73
2023/04/22 02:59:33;;;;;;;14.38;10.57;;;12.80;99.90;;;;;;5098750;28;20044;-73
2023/04/22 03:01:58;;;;;;;13.00;9.50;;;12.80;99.90;;;;;;5098650;28;20433;-73
2023/04/22 03:04:24;;;;;;;13.00;9.68;;;12.70;99.90;;;;;;5098942;28;20032;-74
2023/04/22 03:06:51;;;;;;;12.57;9.95;;;12.60;99.90;;;;;;5097418;28;20139;-74
2023/04/22 03:09:16;;;;;;;12.25;9.52;;;12.60;99.90;;;;;;5098893;28;20333;-73
2023/04/22 03:11:43;;;;;;;13.20;10.10;;;12.60;99.90;;;;;;5098780;28;20048;-73
2023/04/22 03:14:08;;;;;;;12.40;8.93;;;12.60;99.90;;;;;;5098800;28;20067;-73
2023/04/22 03:16:35;;;;;;;12.05;8.93;;;12.60;99.90;;;;;;5098346;28;20389;-74
2023/04/22 03:19:01;;;;;;;10.70;8.68;;;12.50;99.90;;;;;;5097324;28;20391;-74
2023/04/22 03:21:27;;;;;;;12.32;9.27;;;12.50;99.90;;;;;;5098080;28;20044;-73
2023/04/22 03:23:53;;;;;;;13.50;9.57;;;12.50;99.90;;;;;;5098595;28;20058;-73
2023/04/22 03:26:19;;;;;;;11.90;9.05;;;12.40;99.90;;;;;;5098203;28;20043;-74
2023/04/22 03:28:45;;;;;;;12.77;9.68;;;12.30;99.90;;;;;;5098146;28;20039;-73
2023/04/22 03:31:10;;;;;;;13.07;9.70;;;12.30;99.90;;;;;;5098429;28;20044;-73
2023/04/22 03:33:36;;;;;;;12.20;9.60;;;12.30;99.90;;;;;;5098341;28;20039;-73
2023/04/22 03:36:01;;;;;;;13.98;10.65;;;12.20;99.90;;;;;;5098299;28;20436;-73
2023/04/22 03:38:27;;;;;;;12.27;9.60;;;12.20;99.90;;;;;;5097621;28;20131;-73
2023/04/22 03:40:53;;;;;;;14.10;10.52;;;12.30;99.90;;;;;;5097784;28;20051;-73
2023/04/22 03:43:18;;;;;;;13.75;10.18;;;12.20;99.90;;;;;;5097257;28;20040;-73
2023/04/22 03:45:44;;;;;;;15.27;10.68;;;12.10;99.90;;;;;;5096814;28;20514;-73
2023/04/22 03:48:10;;;;;;;15.45;11.00;;;12.20;99.90;;;;;;5097861;28;20038;-73
2023/04/22 03:50:36;;;;;;;13.63;10.68;;;12.20;99.90;;;;;;5097174;28;20334;-74
2023/04/22 03:53:01;;;;;;;15.95;10.32;;;12.20;99.90;;;;;;5097987;28;20089;-74
2023/04/22 03:55:27;;;;;;;13.93;10.35;;;12.20;99.90;;;;;;5097942;28;20044;-73
2023/04/22 03:57:53;;;;;;;15.63;11.65;;;12.10;99.90;;;;;;5097923;28;20047;-74
2023/04/22 04:00:18;;;;;;;14.40;10.80;;;12.10;99.90;;;;;;5097528;28;20075;-73
2023/04/22 04:02:44;;;;;;;12.45;10.45;;;12.00;99.90;;;;;;5097838;28;20036;-73
2023/04/22 04:05:10;;;;;;;14.73;10.93;;;12.00;99.90;;;;;;5097776;28;20090;-73
2023/04/22 04:07:36;;;;;;;13.32;10.95;;;12.00;99.90;;;;;;5097354;28;20058;-73
2023/04/22 04:10:03;;;;;;;15.75;11.23;;;12.00;99.90;;;;;;5097699;28;20031;-73
2023/04/22 04:12:28;;;;;;;15.05;11.32;;;12.00;99.90;;;;;;5097655;28;20071;-74
2023/04/22 04:14:54;;;;;;;19.05;13.27;;;12.00;99.90;;;;;;5089683;28;20483;-74
2023/04/22 04:17:20;;;;;;;15.15;11.32;;;12.00;99.90;;;;;;5096761;28;20048;-74
2023/04/22 04:19:46;;;;;;;17.38;10.95;;;12.00;99.90;;;;;;5097035;28;20056;-73
2023/04/22 04:22:12;;;;;;;14.20;11.52;;;12.00;99.90;;;;;;5097484;28;20055;-74
2023/04/22 04:24:40;;;;;;;15.93;11.13;;;12.00;99.90;;;;;;5097478;28;20337;-73
2023/04/22 04:27:07;;;;;;;16.17;12.43;;;12.00;99.90;;;;;;5097129;28;20485;-74
2023/04/22 04:29:33;;;;;;;18.40;12.20;;;12.00;99.90;;;;;;5097100;28;20422;-73
2023/04/22 04:31:59;;;;;;;14.32;11.02;;;12.00;99.90;;;;;;5097054;28;20058;-73
2023/04/22 04:34:25;;;;;;;17.67;11.50;;;12.00;99.90;;;;;;5097285;28;20043;-74
2023/04/22 04:36:50;;;;;;;17.08;12.35;;;12.00;99.90;;;;;;5096553;28;20044;-73
2023/04/22 04:39:16;;;;;;;20.20;14.25;;;12.00;99.90;;;;;;5096962;28;20040;-74
2023/04/22 04:41:42;;;;;;;17.83;11.82;;;12.00;99.90;;;;;;5096818;28;20075;-74
2023/04/22 04:44:09;;;;;;;15.35;11.68;;;12.10;99.90;;;;;;5097212;28;20043;-73
2023/04/22 04:46:36;;;;;;;14.82;11.77;;;12.00;99.90;;;;;;5097120;28;20040;-73
2023/04/22 04:49:03;;;;;;;15.45;12.73;;;12.00;99.90;;;;;;5097143;28;20329;-73
2023/04/22 04:51:31;;;;;;;15.90;12.02;;;12.00;99.90;;;;;;5096813;28;20055;-73
2023/04/22 04:53:57;;;;;;;19.63;14.15;;;12.10;99.90;;;;;;5096757;28;20080;-73
2023/04/22 04:56:23;;;;;;;16.42;12.32;;;12.10;99.90;;;;;;5097002;28;20044;-73
2023/04/22 04:58:48;;;;;;;17.90;12.38;;;12.10;99.90;;;;;;5097008;28;20043;-73
2023/04/22 05:01:14;;;;;;;18.60;14.20;;;12.10;99.90;;;;;;5096209;28;20448;-74
2023/04/22 05:03:40;;;;;;;15.63;11.05;;;12.10;99.90;;;;;;5096600;28;20075;-73
2023/04/22 05:06:06;;;;;;;17.90;12.13;;;12.10;99.90;;;;;;5096888;28;20051;-74
2023/04/22 05:08:31;;;;;;;15.20;10.95;;;12.10;99.90;;;;;;5096464;28;20036;-74
2023/04/22 05:10:57;;;;;;;15.00;11.55;;;12.20;99.90;;;;;;5096873;28;20374;-74
2023/04/22 05:13:23;;;;;;;15.10;11.93;;;12.20;99.90;;;;;;5096927;28;20059;-73
2023/04/22 05:15:49;;;;;;;16.48;12.20;;;12.20;99.90;;;;;;5096909;28;20173;-74
2023/04/22 05:18:14;;;;;;;18.40;12.63;;;12.30;99.90;;;;;;5096817;28;20341;-74
2023/04/22 05:20:40;;;;;;;21.42;13.65;;;12.40;99.90;;;;;;5096358;28;20052;-73
2023/04/22 05:23:06;;;;;;;15.63;11.88;;;12.40;99.90;;;;;;5096724;28;20389;-73
2023/04/22 05:25:31;;;;;;;16.30;12.23;;;12.30;99.90;;;;;;5096430;28;20039;-74
2023/04/22 05:27:57;;;;;;;16.30;12.23;;;12.40;99.90;;;;;;5096696;28;20036;-73
2023/04/22 05:30:23;;;;;;;16.92;12.88;;;12.30;99.90;;;;;;5096651;28;20067;-73
2023/04/22 05:32:48;;;;;;;15.43;11.27;;;12.40;99.90;;;;;;5096352;28;20036;-74
2023/04/22 05:35:14;;;;;;;17.60;12.77;;;12.40;99.90;;;;;;5096633;28;20050;-74
2023/04/22 05:37:40;;;;;;;16.45;12.02;;;12.50;99.90;;;;;;5096226;28;20082;-74
2023/04/22 05:40:06;;;;;;;17.85;12.43;;;12.50;99.90;;;;;;5096559;28;20390;-73
2023/04/22 05:42:31;;;;;;;17.55;12.73;;;12.60;99.90;;;;;;5096777;28;20391;-73
2023/04/22 05:44:57;;;;;;;16.10;12.73;;;12.50;99.90;;;;;;5096241;28;20068;-73
2023/04/22 05:47:23;;;;;;;17.15;13.25;;;12.60;99.90;;;;;;5096202;28;20036;-73
2023/04/22 05:49:48;;;;;;;23.83;15.27;;;12.70;99.90;;;;;;5096502;28;20148;-73
2023/04/22 05:52:14;;;;;;;20.55;13.57;;;12.80;99.90;;;;;;5096128;28;20051;-74
2023/04/22 05:54:40;;;;;;;19.33;14.35;;;12.90;99.90;;;;;;5096512;28;20033;-74
2023/04/22 05:57:06;;;;;;;17.65;13.35;;;12.90;99.90;;;;;;5096120;28;20418;-73
2023/04/22 05:59:31;;;;;;;23.10;16.50;;;12.90;99.90;;;;;;5096100;28;20036;-73
2023/04/22 06:01:57;;;;;;;20.27;14.80;;;13.00;99.90;;;;;;5095987;28;20044;-74
2023/04/22 06:04:22;;;;;;;19.05;13.90;;;13.10;99.90;;;;;;5096401;28;20036;-73
2023/04/22 06:06:52;;;;;;;19.50;13.25;;;13.10;99.90;;;;;;5096346;28;20070;-73
2023/04/22 06:09:18;;;;;;;17.60;13.95;;;13.20;99.90;;;;;;5095747;28;20036;-73
2023/04/22 06:11:44;;;;;;;17.90;13.68;;;13.20;99.90;;;;;;5096298;28;20055;-74
2023/04/22 06:14:11;;;;;;;16.30;13.15;;;13.20;99.90;;;;;;5099691;28;20139;-74
2023/04/22 06:16:36;;;;;;;22.38;13.75;;;13.30;99.90;;;;;;5099960;28;20119;-73
2023/04/22 06:19:02;;;;;;;19.25;12.90;;;13.30;99.90;;;;;;5099879;28;20123;-73
2023/04/22 06:21:28;;;;;;;16.15;12.77;;;13.30;99.90;;;;;;5099237;28;20055;-73
2023/04/22 06:23:53;;;;;;;18.17;13.68;;;13.30;99.90;;;;;;5099745;28;20425;-73
2023/04/22 06:26:19;;;;;;;19.90;13.13;;;13.30;99.90;;;;;;5099685;28;20444;-73
2023/04/22 06:28:45;;;;;;;17.50;13.63;;;13.40;99.90;;;;;;5099682;28;20047;-73
2023/04/22 06:31:10;;;;;;;19.55;14.00;;;13.30;99.90;;;;;;5099644;28;20039;-73
2023/04/22 06:33:36;;;;;;;18.60;14.30;;;13.30;99.90;;;;;;5099584;28;20066;-73
2023/04/22 06:36:03;;;;;;;14.55;12.52;;;13.50;99.90;;;;;;5099544;28;20040;-73
2023/04/22 06:38:29;;;;;;;20.63;14.05;;;13.50;99.90;;;;;;5099115;28;20043;-73
2023/04/22 06:40:55;;;;;;;20.08;14.32;;;13.50;99.90;;;;;;5099357;28;20379;-73
2023/04/22 06:43:20;;;;;;;22.02;12.98;;;13.50;99.90;;;;;;5099404;28;20375;-73
2023/04/22 06:45:46;;;;;;;18.60;14.15;;;13.70;99.90;;;;;;5099305;28;20346;-73
2023/04/22 06:48:12;;;;;;;19.38;14.60;;;13.80;99.90;;;;;;5099280;28;20337;-73
2023/04/22 06:50:37;;;;;;;20.33;14.85;;;13.80;99.90;;;;;;5099269;28;20325;-73
2023/04/22 06:53:03;;;;;;;18.42;13.05;;;13.90;99.90;;;;;;5099226;28;20398;-73
2023/04/22 06:55:29;;;;;;;17.65;12.95;;;13.90;99.90;;;;;;5099185;28;20053;-73
2023/04/22 06:57:55;;;;;;;18.17;12.85;;;13.90;99.90;;;;;;5098823;28;20051;-73
2023/04/22 07:00:20;;;;;;;15.95;12.40;;;14.00;99.90;;;;;;5097649;28;20334;-74
2023/04/22 07:02:46;;;;;;;20.50;14.50;;;14.00;99.90;;;;;;5098737;28;20086;-69
2023/04/22 07:05:11;;;;;;;18.65;13.75;;;14.10;99.90;;;;;;5097978;28;20040;-69
2023/04/22 07:07:37;;;;;;;17.20;13.85;;;14.20;99.90;;;;;;5098273;28;20043;-70
2023/04/22 07:10:04;;;;;;;18.45;14.05;;;14.20;99.90;;;;;;5098885;28;20032;-69
2023/04/22 07:12:30;;;;;;;22.70;14.05;;;14.30;99.90;;;;;;5098853;28;20068;-69
2023/04/22 07:14:55;;;;;;;18.73;13.70;;;14.40;99.90;;;;;;5098815;28;20484;-69
2023/04/22 07:17:21;;;;;;;16.30;12.25;;;14.40;99.90;;;;;;5098741;28;20425;-69
2023/04/22 07:19:48;;;;;;;16.80;13.80;;;14.50;99.90;;;;;;5097947;28;20436;-69
2023/04/22 07:22:13;;;;;;;13.75;11.82;;;14.60;99.90;;;;;;5097005;28;20040;-74
2023/04/22 07:24:39;;;;;;;18.40;12.77;;;14.70;99.90;;;;;;5097165;28;20047;-70
2023/04/22 07:27:06;;;;;;;18.50;12.98;;;14.70;99.90;;;;;;5079477;28;20348;-70
2023/04/22 07:29:31;;;;;;;17.33;11.88;;;14.80;99.90;;;;;;5096910;28;20028;-70
2023/04/22 07:31:57;;;;;;;18.83;13.10;;;14.90;99.90;;;;;;5097504;28;20539;-73
2023/04/22 07:34:23;;;;;;;16.40;12.35;;;14.80;99.90;;;;;;5096625;28;20044;-69
2023/04/22 07:36:52;;;;;;;16.10;12.10;;;14.80;99.90;;;;;;5098088;28;20047;-69
2023/04/22 07:39:18;;;;;;;16.55;12.65;;;14.90;99.90;;;;;;5097994;28;20132;-69
2023/04/22 07:41:44;;;;;;;15.48;11.82;;;15.00;99.90;;;;;;5098178;28;20032;-68
2023/04/22 07:44:11;;;;;;;19.33;13.27;;;15.10;99.90;;;;;;5098171;28;20051;-69
2023/04/22 07:46:37;;;;;;;16.10;13.13;;;15.30;99.90;;;;;;5097225;28;20072;-69
2023/04/22 07:49:03;;;;;;;18.58;12.18;;;15.30;99.90;;;;;;5097750;28;20129;-69
2023/04/22 07:51:28;;;;;;;17.50;12.18;;;15.40;99.90;;;;;;5063676;28;20046;-69
2023/04/22 07:53:54;;;;;;;14.85;11.43;;;15.30;99.90;;;;;;5098020;28;20383;-69
2023/04/22 07:56:21;;;;;;;20.42;13.18;;;15.40;99.90;;;;;;5097690;28;20040;-69
2023/04/22 07:58:47;;;;;;;20.17;13.38;;;15.40;99.90;;;;;;5097968;28;20044;-68
2023/04/22 08:01:12;;;;;;;17.42;11.75;;;15.30;99.90;;;;;;5096748;28;20040;-69
2023/04/22 08:03:38;;;;;;;16.67;11.93;;;15.30;99.90;;;;;;5096801;28;20083;-69
2023/04/22 08:06:04;;;;;;;15.27;11.13;;;15.30;99.90;;;;;;5096767;28;20036;-69
2023/04/22 08:08:30;;;;;;;17.33;11.98;;;15.30;99.90;;;;;;5097188;28;20048;-69
2023/04/22 08:10:55;;;;;;;16.25;12.23;;;15.40;99.90;;;;;;5097437;28;20036;-70
2023/04/22 08:13:21;;;;;;;14.98;11.18;;;15.60;99.90;;;;;;5097685;28;20040;-69
2023/04/22 08:15:47;;;;;;;20.65;13.13;;;15.60;99.90;;;;;;5079751;28;20417;-72
2023/04/22 08:18:12;;;;;;;16.30;12.60;;;15.60;99.90;;;;;;5097508;28;20040;-69
2023/04/22 08:20:38;;;;;;;18.00;12.60;;;15.50;99.90;;;;;;5097418;28;20337;-69
2023/04/22 08:23:05;;;;;;;17.13;12.95;;;15.50;99.90;;;;;;5097548;28;20109;-69
2023/04/22 08:25:31;;;;;;;14.07;11.40;;;15.70;99.90;;;;;;5097209;28;20489;-68
2023/04/22 08:27:57;;;;;;;21.25;12.43;;;15.60;99.90;;;;;;5097478;28;20126;-68
2023/04/22 08:30:23;;;;;;;16.27;12.23;;;15.50;99.90;;;;;;5097397;28;20341;-69
2023/04/22 08:32:48;;;;;;;17.65;12.23;;;15.40;99.90;;;;;;5097373;28;20044;-68
2023/04/22 08:35:14;;;;;;;18.45;12.55;;;15.40;99.90;;;;;;5095782;28;20059;-68
2023/04/22 08:37:41;;;;;;;15.57;12.15;;;15.70;99.90;;;;;;5095593;28;20345;-68
2023/04/22 08:40:08;;;;;;;15.25;11.10;;;15.80;99.90;;;;;;5095833;28;20044;-68
2023/04/22 08:42:33;;;;;;;14.95;11.40;;;16.00;99.90;;;;;;5078981;28;20123;-68
2023/04/22 08:45:00;;;;;;;13.98;10.80;;;16.40;99.90;;;;;;5097109;28;20067;-69
2023/04/22 08:47:27;;;;;;;15.32;11.20;;;16.40;99.90;;;;;;5097099;28;20051;-67
2023/04/22 08:49:55;;;;;;;12.85;9.98;;;16.50;99.90;;;;;;5095832;28;20044;-67
2023/04/22 08:52:21;;;;;;;12.70;10.57;;;16.10;99.90;;;;;;5095761;28;20130;-67
2023/04/22 08:54:47;;;;;;;12.93;10.45;;;16.30;99.90;;;;;;5096087;28;20040;-67
2023/04/22 08:57:15;;;;;;;14.13;10.55;;;16.30;99.90;;;;;;5095648;28;20036;-67
2023/04/22 08:59:41;;;;;;;16.80;11.20;;;16.50;99.90;;;;;;5096986;28;20044;-66
2023/04/22 09:02:13;;;;;;;13.50;9.63;;;16.50;99.90;;;;;;5096857;28;20119;-68
2023/04/22 09:04:40;;;;;;;14.10;10.10;;;16.90;99.90;;;;;;5097038;28;20090;-69
2023/04/22 09:07:06;;;;;;;11.88;9.13;;;17.00;99.90;;;;;;5096961;28;20043;-69
2023/04/22 09:09:32;;;;;;;12.93;9.55;;;17.30;99.90;;;;;;5096532;28;20075;-69
2023/04/22 09:11:58;;;;;;;13.60;9.50;;;17.60;99.90;;;;;;5095961;28;20055;-69
2023/04/22 09:14:25;;;;;;;9.77;8.38;;;17.80;99.90;;;;;;5096811;28;20044;-69
2023/04/22 09:16:50;;;;;;;11.93;8.90;;;17.70;99.90;;;;;;5096830;28;20079;-69
2023/04/22 09:19:16;;;;;;;11.55;9.32;;;17.90;99.90;;;;;;5096469;28;20071;-68
2023/04/22 09:21:42;;;;;;;10.23;8.63;;;17.80;99.90;;;;;;5096274;28;20048;-67
2023/04/22 09:24:09;;;;;;;10.45;8.00;;;17.80;99.90;;;;;;5096789;28;20119;-68
2023/04/22 09:26:39;;;;;;;12.98;8.80;;;17.90;99.90;;;;;;5096749;28;20111;-68
2023/04/22 09:29:08;;;;;;;10.80;7.90;;;18.20;99.90;;;;;;5097029;28;20406;-68
2023/04/22 09:31:36;;;;;;;9.70;7.70;;;18.10;99.90;;;;;;5096698;28;20123;-68
2023/04/22 09:34:03;;;;;;;9.07;7.50;;;17.90;99.90;;;;;;5096944;28;20071;-68
2023/04/22 09:36:29;;;;;;;11.25;7.50;;;18.00;99.90;;;;;;5096307;28;20040;-68
2023/04/22 09:38:58;;;;;;;10.05;7.35;;;18.10;99.90;;;;;;5096202;28;20085;-68
2023/04/22 09:41:42;;;;;;;10.27;6.80;;;18.10;99.90;;;;;;5096492;28;20045;-69
2023/04/22 09:44:12;;;;;;;11.55;7.13;;;18.20;99.90;;;;;;5095875;28;20127;-69
2023/04/22 09:46:41;;;;;;;9.48;7.00;;;18.30;99.90;;;;;;5097766;28;20040;-68
2023/04/22 09:49:07;;;;;;;8.68;6.60;;;18.20;99.90;;;;;;5100449;28;20044;-69
2023/04/22 09:51:33;;;;;;;9.55;6.50;;;18.30;99.90;;;;;;5100074;28;20448;-69
2023/04/22 09:54:09;;;;;;;8.95;6.22;;;18.50;99.90;;;;;;5099038;28;20076;-70
2023/04/22 09:56:42;;;;;;;8.40;6.40;;;18.50;99.90;;;;;;5100150;28;20536;-69
2023/04/22 09:59:08;;;;;;;8.70;5.95;;;18.50;99.90;;;;;;5100301;28;20064;-69
2023/04/22 10:01:41;;;;;;;9.23;6.20;;;18.70;99.90;;;;;;5099196;28;20047;-69
2023/04/22 10:04:13;;;;;;;13.27;9.07;;;18.90;99.90;;;;;;5100186;28;20040;-68
2023/04/22 10:06:40;;;;;;;12.30;9.20;;;19.20;99.90;;;;;;5099124;28;20062;-67
2023/04/22 10:09:06;;;;;;;12.32;8.90;;;19.40;99.90;;;;;;5099734;28;20039;-68
2023/04/22 10:11:33;;;;;;;13.23;7.78;;;19.60;99.90;;;;;;5100090;28;20086;-73
2023/04/22 10:13:59;;;;;;;11.65;9.35;;;19.40;99.90;;;;;;5100098;28;20036;-75
2023/04/22 10:16:27;;;;;;;12.88;9.00;;;19.20;99.90;;;;;;5099267;28;20046;-74
2023/04/22 10:18:55;;;;;;;12.18;8.93;;;18.90;99.90;;;;;;5099991;28;20047;-69
2023/04/22 10:21:24;;;;;;;10.60;8.80;;;18.80;99.90;;;;;;5099368;28;20059;-68
2023/04/22 10:23:50;;;;;;;12.48;8.13;;;19.20;99.90;;;;;;5098455;28;20055;-68
2023/04/22 10:26:57;;;;;;;9.50;7.88;;;19.40;99.90;;;;;;5099769;28;20040;-70
2023/04/22 10:29:25;;;;;;;10.23;7.78;;;19.90;99.90;;;;;;5001236;28;20052;-69
2023/04/22 10:32:02;;;;;;;10.05;8.20;;;20.20;99.90;;;;;;5086850;28;20445;-72
2023/04/22 10:34:31;;;;;;;11.50;7.88;;;20.30;99.90;;;;;;5099330;28;20498;-69
2023/04/22 10:37:10;;;;;;;9.60;7.55;;;20.50;99.90;;;;;;5099435;28;20039;-69
2023/04/22 10:39:37;;;;;;;9.13;7.20;;;20.50;99.90;;;;;;5098974;28;20044;-69
2023/04/22 10:42:05;;;;;;;8.52;6.53;;;20.50;99.90;;;;;;5081269;28;20329;-69
2023/04/22 10:44:53;;;;;;;8.27;6.88;;;20.70;99.90;;;;;;5099098;28;20441;-69
2023/04/22 10:47:33;;;;;;;8.38;6.70;;;20.80;99.90;;;;;;5099367;28;20097;-69
2023/04/22 10:50:20;;;;;;;10.77;7.18;;;20.90;99.90;;;;;;5099335;28;20044;-70
2023/04/22 10:52:57;;;;;;;8.45;6.57;;;21.00;99.90;;;;;;5098986;28;20334;-70
2023/04/22 10:55:24;;;;;;;8.35;6.40;;;21.10;99.90;;;;;;5099239;28;20422;-70
2023/04/22 10:57:51;;;;;;;9.15;5.88;;;21.20;99.90;;;;;;5098704;28;20036;-70
2023/04/22 11:00:17;;;;;;;8.27;5.88;;;21.50;99.90;;;;;;5098858;28;20119;-70
2023/04/22 11:02:49;;;;;;;10.25;6.30;;;21.40;99.90;;;;;;5099044;28;20135;-71
2023/04/22 11:05:24;;;;;;;8.27;6.53;;;21.40;99.90;;;;;;5099021;28;20036;-70
2023/04/22 11:07:52;;;;;;;7.40;5.70;;;21.50;99.90;;;;;;5097554;28;20044;-70
2023/04/22 11:10:42;;;;;;;9.25;6.07;;;22.00;99.90;;;;;;5098388;28;20097;-71
2023/04/22 11:13:11;;;;;;;10.35;6.60;;;22.00;99.90;;;;;;5099135;28;20068;-70
2023/04/22 11:15:39;;;;;;;8.05;6.60;;;22.10;99.90;;;;;;5098517;28;20507;-70
2023/04/22 11:18:10;;;;;;;7.32;6.03;;;21.80;99.90;;;;;;5098787;28;20039;-70
2023/04/22 11:20:37;;;;;;;6.57;5.85;;;22.10;99.90;;;;;;5098360;28;20083;-71
2023/04/22 11:23:03;;;;;;;7.65;6.07;;;22.20;99.90;;;;;;5098333;28;20444;-70
2023/04/22 11:25:29;;;;;;;9.00;6.10;;;22.40;99.90;;;;;;5114882;28;20452;-69
2023/04/22 11:27:56;;;;;;;8.25;5.72;;;22.80;99.90;;;;;;5097504;28;20044;-68
2023/04/22 11:30:24;;;;;;;8.85;5.95;;;23.00;99.90;;;;;;5098692;28;20097;-68
2023/04/22 11:32:51;;;;;;;6.88;5.43;;;22.90;99.90;;;;;;5098436;28;20048;-69
2023/04/22 11:35:32;;;;;;;6.88;5.53;;;23.10;99.90;;;;;;5098140;28;20047;-69
2023/04/22 11:38:03;;;;;;;6.38;5.00;;;23.20;99.90;;;;;;5098086;28;20067;-69
2023/04/22 11:40:29;;;;;;;6.53;4.95;;;23.10;99.90;;;;;;5098337;28;20043;-69
2023/04/22 11:42:56;;;;;;;9.43;4.65;;;23.10;99.90;;;;;;5098258;28;20115;-69
2023/04/22 11:45:22;;;;;;;6.75;4.15;;;23.20;99.90;;;;;;5098252;28;20040;-69
2023/04/22 11:47:50;;;;;;;8.48;4.10;;;23.50;99.90;;;;;;5097278;28;20028;-69
2023/04/22 11:50:17;;;;;;;6.03;4.70;;;23.80;99.90;;;;;;5097857;28;20440;-69
2023/04/22 11:52:50;;;;;;;5.38;4.53;;;23.90;99.90;;;;;;5098125;28;20043;-69
2023/04/22 11:55:33;;;;;;;8.50;4.72;;;23.60;99.90;;;;;;5098069;28;20411;-69
2023/04/22 11:58:09;;;;;;;7.80;5.10;;;23.30;99.90;;;;;;5098014;28;20051;-69
2023/04/22 12:00:45;;;;;;;6.65;4.97;;;23.50;99.90;;;;;;5097922;28;20040;-69
2023/04/22 12:03:11;;;;;;;;;;;23.60;99.90;;;;;;5080482;28;20040;-69
2023/04/22 12:05:45;;;;;;;9.13;5.15;;;23.80;99.90;;;;;;5096644;28;19916;-69
2023/04/22 12:08:12;;;;;;;6.63;4.80;;;23.50;99.90;;;;;;5097464;28;20032;-69
2023/04/22 12:10:43;;;;;;;6.80;4.63;;;23.50;99.90;;;;;;5095610;28;20067;-69
2023/04/22 12:13:09;;;;;;;6.03;4.80;;;23.50;99.90;;;;;;5096479;28;20448;-69
2023/04/22 12:15:40;;;;;;;7.32;4.32;;;23.80;99.90;;;;;;5079514;28;20093;-69
2023/04/22 12:18:07;;;;;;;6.90;4.57;;;23.80;99.90;;;;;;5096276;28;20127;-69
2023/04/22 12:20:38;;;;;;;4.90;4.20;;;23.80;99.90;;;;;;5097127;28;20063;-68
2023/04/22 12:23:04;;;;;;;5.80;3.80;;;23.40;99.90;;;;;;5097248;28;20055;-69
2023/04/22 12:25:32;;;;;;;5.18;3.65;;;22.60;99.90;;;;;;5097464;28;20075;-69
2023/04/22 12:27:59;;;;;;;7.95;3.88;;;22.50;99.90;;;;;;5097433;28;20043;-69
2023/04/22 12:30:25;;;;;;;10.57;4.72;;;22.40;99.90;;;;;;5096383;28;20118;-69
2023/04/22 12:32:51;;;;;;;8.07;5.30;;;22.30;99.90;;;;;;5097053;28;20132;-69
2023/04/22 12:35:17;;;;;;;7.85;5.38;;;21.90;99.90;;;;;;5096365;28;20063;-69